createdAt,value
2017-04-06T00:00:38.598Z,8.23
2017-04-06T00:01:47.485Z,8.23
2017-04-06T00:02:56.376Z,8.23
2017-04-06T00:04:05.412Z,8.07
2017-04-06T00:05:14.299Z,8.05
2017-04-06T00:06:23.509Z,8.15
2017-04-06T00:07:32.715Z,8.07
2017-04-06T00:08:41.598Z,8.1
2017-04-06T00:09:50.958Z,8.26
2017-04-06T00:10:59.844Z,8.08
2017-04-06T00:12:08.741Z,8.11
2017-04-06T00:13:17.628Z,8.08
2017-04-06T00:14:26.843Z,8.04
2017-04-06T00:15:36.977Z,7.98
2017-04-06T00:16:45.865Z,8.11
2017-04-06T00:17:54.755Z,8.18
2017-04-06T00:19:03.638Z,8.08
2017-04-06T00:20:12.523Z,8.01
2017-04-06T00:21:21.581Z,8.26
2017-04-06T00:22:30.473Z,7.98
2017-04-06T00:23:39.359Z,8.19
2017-04-06T00:24:48.251Z,8.11
2017-04-06T00:25:57.135Z,8.11
2017-04-06T00:27:06.174Z,7.97
2017-04-06T00:28:15.391Z,8.23
2017-04-06T00:29:24.274Z,8.23
2017-04-06T00:30:33.174Z,8.3
2017-04-06T00:31:42.389Z,8.16
2017-04-06T00:32:51.325Z,8.29
2017-04-06T00:34:00.217Z,8.16
2017-04-06T00:35:09.104Z,8.11
2017-04-06T00:36:17.991Z,8.16
2017-04-06T00:37:27.200Z,8.15
2017-04-06T00:38:36.257Z,8.11
2017-04-06T00:39:45.473Z,8.08
2017-04-06T00:40:54.357Z,8.15
2017-04-06T00:42:03.568Z,8.05
2017-04-06T00:43:12.453Z,7.95
2017-04-06T00:44:21.491Z,7.89
2017-04-06T00:45:30.375Z,7.93
2017-04-06T00:46:39.283Z,8.12
2017-04-06T00:47:48.173Z,8.01
2017-04-06T00:48:57.061Z,8
2017-04-06T00:50:06.625Z,7.95
2017-04-06T00:51:15.507Z,7.79
2017-04-06T00:52:24.393Z,7.83
2017-04-06T00:53:33.606Z,7.9
2017-04-06T00:54:42.490Z,7.9
2017-04-06T00:55:51.522Z,7.83
2017-04-06T00:57:00.762Z,7.86
2017-04-06T00:58:09.648Z,7.87
2017-04-06T00:59:18.536Z,7.85
2017-04-06T01:00:27.421Z,7.89
2017-04-06T01:01:36.352Z,7.83
2017-04-06T01:02:45.262Z,7.74
2017-04-06T01:03:54.169Z,7.85
2017-04-06T01:05:03.051Z,7.79
2017-04-06T01:06:11.938Z,7.93
2017-04-06T01:07:20.874Z,7.85
2017-04-06T01:08:29.763Z,7.87
2017-04-06T01:09:39.006Z,7.87
2017-04-06T01:10:48.217Z,7.93
2017-04-06T01:11:57.139Z,7.77
2017-04-06T01:13:07.099Z,7.79
2017-04-06T01:14:15.986Z,7.83
2017-04-06T01:15:24.868Z,7.83
2017-04-06T01:16:34.075Z,7.64
2017-04-06T01:17:43.284Z,7.9
2017-04-06T01:18:52.318Z,7.77
2017-04-06T01:20:01.203Z,7.85
2017-04-06T01:21:10.085Z,7.82
2017-04-06T01:22:18.973Z,7.97
2017-04-06T01:23:28.829Z,7.89
2017-04-06T01:24:37.865Z,7.86
2017-04-06T01:25:46.758Z,7.82
2017-04-06T01:26:55.644Z,7.8
2017-04-06T01:28:04.557Z,7.74
2017-04-06T01:29:13.443Z,7.61
2017-04-06T01:30:22.429Z,7.82
2017-04-06T01:31:31.318Z,7.61
2017-04-06T01:32:40.205Z,7.82
2017-04-06T01:33:49.431Z,7.64
2017-04-06T01:34:58.639Z,7.63
2017-04-06T01:36:07.678Z,7.85
2017-04-06T01:37:16.565Z,7.82
2017-04-06T01:38:25.449Z,7.85
2017-04-06T01:39:34.334Z,7.63
2017-04-06T01:40:43.546Z,7.82
2017-04-06T01:41:52.731Z,7.83
2017-04-06T01:43:01.620Z,7.8
2017-04-06T01:44:10.832Z,7.8
2017-04-06T01:45:19.721Z,7.71
2017-04-06T01:46:29.259Z,7.68
2017-04-06T01:47:38.718Z,7.75
2017-04-06T01:48:47.597Z,7.77
2017-04-06T01:49:56.486Z,7.82
2017-04-06T01:51:05.373Z,7.93
2017-04-06T01:52:14.587Z,7.86
2017-04-06T01:53:23.580Z,7.95
2017-04-06T01:54:32.470Z,7.87
2017-04-06T01:55:41.682Z,7.86
2017-04-06T01:56:50.568Z,7.85
2017-04-06T01:57:59.457Z,7.74
2017-04-06T01:59:08.496Z,7.8
2017-04-06T02:00:17.387Z,7.74
2017-04-06T02:01:26.267Z,7.85
2017-04-06T02:02:35.147Z,7.8
2017-04-06T02:03:44.030Z,7.85
2017-04-06T02:04:53.120Z,7.74
2017-04-06T02:06:02.000Z,7.71
2017-04-06T02:07:10.910Z,7.68
2017-04-06T02:08:19.799Z,7.6
2017-04-06T02:09:28.685Z,7.67
2017-04-06T02:10:37.723Z,7.72
2017-04-06T02:11:46.614Z,7.69
2017-04-06T02:12:55.501Z,7.63
2017-04-06T02:14:04.708Z,7.61
2017-04-06T02:15:13.593Z,7.69
2017-04-06T02:16:22.580Z,7.77
2017-04-06T02:17:31.474Z,7.83
2017-04-06T02:18:40.358Z,7.89
2017-04-06T02:19:49.570Z,7.8
2017-04-06T02:20:58.458Z,7.79
2017-04-06T02:22:07.495Z,7.63
2017-04-06T02:23:16.410Z,7.64
2017-04-06T02:24:25.622Z,7.82
2017-04-06T02:25:34.506Z,7.68
2017-04-06T02:26:44.050Z,7.8
2017-04-06T02:27:52.985Z,7.58
2017-04-06T02:29:01.867Z,7.58
2017-04-06T02:30:10.753Z,7.64
2017-04-06T02:31:19.638Z,7.58
2017-04-06T02:32:28.850Z,7.67
2017-04-06T02:33:38.072Z,7.57
2017-04-06T02:34:46.959Z,7.49
2017-04-06T02:35:55.845Z,7.57
2017-04-06T02:37:04.738Z,7.63
2017-04-06T02:38:13.952Z,7.61
2017-04-06T02:39:22.986Z,7.63
2017-04-06T02:40:31.875Z,7.68
2017-04-06T02:41:41.089Z,7.58
2017-04-06T02:42:49.974Z,7.6
2017-04-06T02:43:58.855Z,7.63
2017-04-06T02:45:07.891Z,7.58
2017-04-06T02:46:16.777Z,7.72
2017-04-06T02:47:25.662Z,7.55
2017-04-06T02:48:34.546Z,7.74
2017-04-06T02:49:43.427Z,7.58
2017-04-06T02:50:52.459Z,7.58
2017-04-06T02:52:01.676Z,7.58
2017-04-06T02:53:10.570Z,7.69
2017-04-06T02:54:19.775Z,7.69
2017-04-06T02:55:28.982Z,7.68
2017-04-06T02:56:37.970Z,7.67
2017-04-06T02:57:46.852Z,7.79
2017-04-06T02:58:55.733Z,7.58
2017-04-06T03:00:04.624Z,7.58
2017-04-06T03:01:13.518Z,7.53
2017-04-06T03:02:22.404Z,7.46
2017-04-06T03:03:31.610Z,7.49
2017-04-06T03:04:40.500Z,7.48
2017-04-06T03:05:49.706Z,7.61
2017-04-06T03:06:58.916Z,7.57
2017-04-06T03:08:07.950Z,7.63
2017-04-06T03:09:16.864Z,7.48
2017-04-06T03:10:25.750Z,7.5
2017-04-06T03:11:34.958Z,7.48
2017-04-06T03:12:43.848Z,7.53
2017-04-06T03:13:52.782Z,7.72
2017-04-06T03:15:01.667Z,7.67
2017-04-06T03:16:10.552Z,7.52
2017-04-06T03:17:19.435Z,7.52
2017-04-06T03:18:28.320Z,7.57
2017-04-06T03:19:37.741Z,7.61
2017-04-06T03:20:46.626Z,7.71
2017-04-06T03:21:55.512Z,7.57
2017-04-06T03:23:04.726Z,7.77
2017-04-06T03:24:13.615Z,7.58
2017-04-06T03:25:22.649Z,7.8
2017-04-06T03:26:31.882Z,7.92
2017-04-06T03:27:40.771Z,7.83
2017-04-06T03:28:49.662Z,7.72
2017-04-06T03:29:58.550Z,7.67
2017-04-06T03:31:07.540Z,7.68
2017-04-06T03:32:16.459Z,7.61
2017-04-06T03:33:25.671Z,7.67
2017-04-06T03:34:34.555Z,7.67
2017-04-06T03:35:43.764Z,7.58
2017-04-06T03:36:53.449Z,7.69
2017-04-06T03:38:02.336Z,7.58
2017-04-06T03:39:11.547Z,7.58
2017-04-06T03:40:20.432Z,7.63
2017-04-06T03:41:29.328Z,7.6
2017-04-06T03:42:38.268Z,7.83
2017-04-06T03:43:47.154Z,7.69
2017-04-06T03:44:56.365Z,7.8
2017-04-06T03:46:05.900Z,7.82
2017-04-06T03:47:15.120Z,7.77
2017-04-06T03:48:24.155Z,7.72
2017-04-06T03:49:33.049Z,7.68
2017-04-06T03:50:42.287Z,7.8
2017-04-06T03:51:51.176Z,7.85
2017-04-06T03:53:00.064Z,7.67
2017-04-06T03:54:09.104Z,7.6
2017-04-06T03:55:17.991Z,7.67
2017-04-06T03:56:26.878Z,7.68
2017-04-06T03:57:35.759Z,7.72
2017-04-06T03:58:44.643Z,7.58
2017-04-06T03:59:53.528Z,7.68
2017-04-06T04:01:02.414Z,7.67
2017-04-06T04:02:11.297Z,7.64
2017-04-06T04:03:20.182Z,7.67
2017-04-06T04:04:29.392Z,7.6
2017-04-06T04:05:38.328Z,7.64
2017-04-06T04:06:47.214Z,7.67
2017-04-06T04:07:56.103Z,7.58
2017-04-06T04:09:05.315Z,7.74
2017-04-06T04:10:14.202Z,7.63
2017-04-06T04:11:23.141Z,7.58
2017-04-06T04:12:32.026Z,7.55
2017-04-06T04:13:41.234Z,7.58
2017-04-06T04:14:50.119Z,7.55
2017-04-06T04:15:59.335Z,7.52
2017-04-06T04:17:08.702Z,7.45
2017-04-06T04:18:18.237Z,7.49
2017-04-06T04:19:27.119Z,7.52
2017-04-06T04:20:36.000Z,7.53
2017-04-06T04:21:44.885Z,7.55
2017-04-06T04:22:54.345Z,7.58
2017-04-06T04:24:03.231Z,7.57
2017-04-06T04:25:12.117Z,7.53
2017-04-06T04:26:21.330Z,7.49
2017-04-06T04:27:30.546Z,7.52
2017-04-06T04:28:39.805Z,7.53
2017-04-06T04:29:48.692Z,7.52
2017-04-06T04:30:57.575Z,7.53
2017-04-06T04:32:06.471Z,7.55
2017-04-06T04:33:16.014Z,7.55
2017-04-06T04:34:25.247Z,7.48
2017-04-06T04:35:34.141Z,7.55
2017-04-06T04:36:43.360Z,7.58
2017-04-06T04:37:52.242Z,7.57
2017-04-06T04:39:01.126Z,7.52
2017-04-06T04:40:10.310Z,7.57
2017-04-06T04:41:19.193Z,7.49
2017-04-06T04:42:28.074Z,7.57
2017-04-06T04:43:36.958Z,7.52
2017-04-06T04:44:45.842Z,7.58
2017-04-06T04:45:54.879Z,7.61
2017-04-06T04:47:03.769Z,7.63
2017-04-06T04:48:12.652Z,7.85
2017-04-06T04:49:21.537Z,7.72
2017-04-06T04:50:30.421Z,7.69
2017-04-06T04:51:39.307Z,7.53
2017-04-06T04:52:48.225Z,7.58
2017-04-06T04:53:57.118Z,7.68
2017-04-06T04:55:06.659Z,7.64
2017-04-06T04:56:15.870Z,7.53
2017-04-06T04:57:24.902Z,7.6
2017-04-06T04:58:33.787Z,7.68
2017-04-06T04:59:42.670Z,7.79
2017-04-06T05:00:51.555Z,7.68
2017-04-06T05:02:00.769Z,7.55
2017-04-06T05:03:09.907Z,7.64
2017-04-06T05:04:19.765Z,7.74
2017-04-06T05:05:28.653Z,7.9
2017-04-06T05:06:37.875Z,7.86
2017-04-06T05:07:46.796Z,7.98
2017-04-06T05:08:56.031Z,7.89
2017-04-06T05:10:05.575Z,7.89
2017-04-06T05:11:14.793Z,7.89
2017-04-06T05:12:24.005Z,7.93
2017-04-06T05:13:32.901Z,7.93
2017-04-06T05:14:41.936Z,7.95
2017-04-06T05:15:50.823Z,7.98
2017-04-06T05:17:00.034Z,7.93
2017-04-06T05:18:09.248Z,7.95
2017-04-06T05:19:18.131Z,7.89
2017-04-06T05:20:27.017Z,7.86
2017-04-06T05:21:36.547Z,7.83
2017-04-06T05:22:45.434Z,7.92
2017-04-06T05:23:54.329Z,7.83
2017-04-06T05:25:03.216Z,7.72
2017-04-06T05:26:12.253Z,7.68
2017-04-06T05:27:21.143Z,7.68
2017-04-06T05:28:30.353Z,7.61
2017-04-06T05:29:39.241Z,7.64
2017-04-06T05:30:48.458Z,7.61
2017-04-06T05:31:57.895Z,7.69
2017-04-06T05:33:07.107Z,7.58
2017-04-06T05:34:16.330Z,7.68
2017-04-06T05:35:25.221Z,7.89
2017-04-06T05:36:34.113Z,8.01
2017-04-06T05:37:43.307Z,7.85
2017-04-06T05:38:52.192Z,7.8
2017-04-06T05:40:01.399Z,7.8
2017-04-06T05:41:10.283Z,7.77
2017-04-06T05:42:19.165Z,7.75
2017-04-06T05:43:28.203Z,7.71
2017-04-06T05:44:37.093Z,7.5
2017-04-06T05:45:45.986Z,7.6
2017-04-06T05:46:55.533Z,7.53
2017-04-06T05:48:04.740Z,7.74
2017-04-06T05:49:13.781Z,7.69
2017-04-06T05:50:22.991Z,7.9
2017-04-06T05:51:32.205Z,7.82
2017-04-06T05:52:41.091Z,7.82
2017-04-06T05:53:49.977Z,7.8
2017-04-06T05:54:59.238Z,7.89
2017-04-06T05:56:08.449Z,7.89
2017-04-06T05:57:17.334Z,7.82
2017-04-06T05:58:26.220Z,7.75
2017-04-06T05:59:35.100Z,7.82
2017-04-06T06:00:44.237Z,7.79
2017-04-06T06:01:53.146Z,7.8
2017-04-06T06:03:02.363Z,7.83
2017-04-06T06:04:11.575Z,7.71
2017-04-06T06:05:20.789Z,7.79
2017-04-06T06:06:30.283Z,7.85
2017-04-06T06:07:39.167Z,7.77
2017-04-06T06:08:48.052Z,7.87
2017-04-06T06:09:56.944Z,7.82
2017-04-06T06:11:05.832Z,7.82
2017-04-06T06:12:14.879Z,7.87
2017-04-06T06:13:24.091Z,7.86
2017-04-06T06:14:33.316Z,7.8
2017-04-06T06:15:42.536Z,7.82
2017-04-06T06:16:51.423Z,7.77
2017-04-06T06:18:00.560Z,7.92
2017-04-06T06:19:09.448Z,7.87
2017-04-06T06:20:18.346Z,7.89
2017-04-06T06:21:27.262Z,7.92
2017-04-06T06:22:36.153Z,7.89
2017-04-06T06:23:45.194Z,7.95
2017-04-06T06:24:54.076Z,7.83
2017-04-06T06:26:02.961Z,7.83
2017-04-06T06:27:11.848Z,7.92
2017-04-06T06:28:20.736Z,8.02
2017-04-06T06:29:29.722Z,8.01
2017-04-06T06:30:38.610Z,7.95
2017-04-06T06:31:48.145Z,8.1
2017-04-06T06:32:57.368Z,7.98
2017-04-06T06:34:06.584Z,8.07
2017-04-06T06:35:15.548Z,8.11
2017-04-06T06:36:24.763Z,8.11
2017-04-06T06:37:33.651Z,8.15
2017-04-06T06:38:42.543Z,8.48
2017-04-06T06:39:51.430Z,8.41
2017-04-06T06:41:00.694Z,8.44
2017-04-06T06:42:09.584Z,8.44
2017-04-06T06:43:18.808Z,8.44
2017-04-06T06:44:27.695Z,8.41
2017-04-06T06:45:36.589Z,8.36
2017-04-06T06:46:45.725Z,8.28
2017-04-06T06:47:55.269Z,8.3
2017-04-06T06:49:04.153Z,8.47
2017-04-06T06:50:13.039Z,8.43
2017-04-06T06:51:21.930Z,8.34
2017-04-06T06:52:31.625Z,8.3
2017-04-06T06:53:40.511Z,8.4
2017-04-06T06:54:49.406Z,8.25
2017-04-06T06:55:58.291Z,8.34
2017-04-06T06:57:07.182Z,8.28
2017-04-06T06:58:16.229Z,8.41
2017-04-06T06:59:25.120Z,8.41
2017-04-06T07:00:34.008Z,8.37
2017-04-06T07:01:42.898Z,8.44
2017-04-06T07:02:52.109Z,8.47
2017-04-06T07:04:01.395Z,8.43
2017-04-06T07:05:10.287Z,8.56
2017-04-06T07:06:19.175Z,8.48
2017-04-06T07:07:28.391Z,8.59
2017-04-06T07:08:37.942Z,8.47
2017-04-06T07:09:46.881Z,8.55
2017-04-06T07:10:55.777Z,8.55
2017-04-06T07:12:04.991Z,8.61
2017-04-06T07:13:13.881Z,8.61
2017-04-06T07:14:23.096Z,8.56
2017-04-06T07:15:32.609Z,8.59
2017-04-06T07:16:41.498Z,8.7
2017-04-06T07:17:50.709Z,8.86
2017-04-06T07:18:59.924Z,8.76
2017-04-06T07:20:09.137Z,8.91
2017-04-06T07:21:18.405Z,9.01
2017-04-06T07:22:27.630Z,8.74
2017-04-06T07:23:36.523Z,8.74
2017-04-06T07:24:45.408Z,8.76
2017-04-06T07:25:54.621Z,8.63
2017-04-06T07:27:03.663Z,8.7
2017-04-06T07:28:12.875Z,8.77
2017-04-06T07:29:21.767Z,8.76
2017-04-06T07:30:30.657Z,8.86
2017-04-06T07:31:39.548Z,8.91
2017-04-06T07:32:48.784Z,8.94
2017-04-06T07:33:57.673Z,8.96
2017-04-06T07:35:06.885Z,8.77
2017-04-06T07:36:16.101Z,8.77
2017-04-06T07:37:25.317Z,8.83
2017-04-06T07:38:34.255Z,8.95
2017-04-06T07:39:43.142Z,8.92
2017-04-06T07:40:52.351Z,8.89
2017-04-06T07:42:01.564Z,8.76
2017-04-06T07:43:10.450Z,8.91
2017-04-06T07:44:19.491Z,8.77
2017-04-06T07:45:28.375Z,8.84
2017-04-06T07:46:37.260Z,8.95
2017-04-06T07:47:46.149Z,9.04
2017-04-06T07:48:55.369Z,8.91
2017-04-06T07:50:04.934Z,8.92
2017-04-06T07:51:13.824Z,8.96
2017-04-06T07:52:23.038Z,9.05
2017-04-06T07:53:32.262Z,8.89
2017-04-06T07:54:41.153Z,8.94
2017-04-06T07:55:50.565Z,8.91
2017-04-06T07:56:59.458Z,8.98
2017-04-06T07:58:08.694Z,9.08
2017-04-06T07:59:17.588Z,9.02
2017-04-06T08:00:26.479Z,8.94
2017-04-06T08:01:35.522Z,9.08
2017-04-06T08:02:44.413Z,9.14
2017-04-06T08:03:53.303Z,9.1
2017-04-06T08:05:02.201Z,9.23
2017-04-06T08:06:11.095Z,9.11
2017-04-06T08:07:20.083Z,9.1
2017-04-06T08:08:28.980Z,9.11
2017-04-06T08:09:37.869Z,9.13
2017-04-06T08:10:46.766Z,9.11
2017-04-06T08:11:55.656Z,9.21
2017-04-06T08:13:04.796Z,9.13
2017-04-06T08:14:13.687Z,9.2
2017-04-06T08:15:22.586Z,9.26
2017-04-06T08:16:31.487Z,9.23
2017-04-06T08:17:40.732Z,9.26
2017-04-06T08:18:49.771Z,9.24
2017-04-06T08:19:58.663Z,9.13
2017-04-06T08:21:07.554Z,9.05
2017-04-06T08:22:16.441Z,9.13
2017-04-06T08:23:25.335Z,9.31
2017-04-06T08:24:34.376Z,9.29
2017-04-06T08:25:43.263Z,9.56
2017-04-06T08:26:52.153Z,9.43
2017-04-06T08:28:01.050Z,9.26
2017-04-06T08:29:09.939Z,9.31
2017-04-06T08:30:18.881Z,9.24
2017-04-06T08:31:28.103Z,9.2
2017-04-06T08:32:37.314Z,9.23
2017-04-06T08:33:46.203Z,9.36
2017-04-06T08:34:55.418Z,9.48
2017-04-06T08:36:04.635Z,9.46
2017-04-06T08:37:13.852Z,9.36
2017-04-06T08:38:23.065Z,9.48
2017-04-06T08:39:31.954Z,9.38
2017-04-06T08:40:41.168Z,9.39
2017-04-06T08:41:50.210Z,9.43
2017-04-06T08:42:59.423Z,9.51
2017-04-06T08:44:08.314Z,9.43
2017-04-06T08:45:17.203Z,9.43
2017-04-06T08:46:26.098Z,9.43
2017-04-06T08:47:35.582Z,9.48
2017-04-06T08:48:44.803Z,9.4
2017-04-06T08:49:53.691Z,9.46
2017-04-06T08:51:02.580Z,9.56
2017-04-06T08:52:11.471Z,9.65
2017-04-06T08:53:20.457Z,9.57
2017-04-06T08:54:29.356Z,9.61
2017-04-06T08:55:38.245Z,9.69
2017-04-06T08:56:47.139Z,9.76
2017-04-06T08:57:56.028Z,9.87
2017-04-06T08:59:05.066Z,9.96
2017-04-06T09:00:13.962Z,9.97
2017-04-06T09:01:22.852Z,10.01
2017-04-06T09:02:32.064Z,10.02
2017-04-06T09:03:40.950Z,10.01
2017-04-06T09:04:49.841Z,10.09
2017-04-06T09:05:58.730Z,9.93
2017-04-06T09:07:08.268Z,9.83
2017-04-06T09:08:17.156Z,9.79
2017-04-06T09:09:26.040Z,9.83
2017-04-06T09:10:35.087Z,9.96
2017-04-06T09:11:43.980Z,9.93
2017-04-06T09:12:53.205Z,9.99
2017-04-06T09:14:02.420Z,9.89
2017-04-06T09:15:11.313Z,10.07
2017-04-06T09:16:20.351Z,9.93
2017-04-06T09:17:29.240Z,10.01
2017-04-06T09:18:38.166Z,10.05
2017-04-06T09:19:47.383Z,9.99
2017-04-06T09:20:56.277Z,9.61
2017-04-06T09:22:06.193Z,9.83
2017-04-06T09:23:15.080Z,9.76
2017-04-06T09:24:23.968Z,9.61
2017-04-06T09:25:32.855Z,9.61
2017-04-06T09:26:41.744Z,9.94
2017-04-06T09:27:51.115Z,9.83
2017-04-06T09:29:00.005Z,9.79
2017-04-06T09:30:09.224Z,9.65
2017-04-06T09:31:18.120Z,9.68
2017-04-06T09:32:27.333Z,9.79
2017-04-06T09:33:36.372Z,9.78
2017-04-06T09:34:45.259Z,9.76
2017-04-06T09:35:54.150Z,9.83
2017-04-06T09:37:03.052Z,9.79
2017-04-06T09:38:11.967Z,9.84
2017-04-06T09:39:21.106Z,10.12
2017-04-06T09:40:29.998Z,10.02
2017-04-06T09:41:39.210Z,10.25
2017-04-06T09:42:48.428Z,10.15
2017-04-06T09:43:57.317Z,10.26
2017-04-06T09:45:06.265Z,10.2
2017-04-06T09:46:15.157Z,10.22
2017-04-06T09:47:24.368Z,10.18
2017-04-06T09:48:33.580Z,10.23
2017-04-06T09:49:42.475Z,10.32
2017-04-06T09:50:51.843Z,10.29
2017-04-06T09:52:01.086Z,10.3
2017-04-06T09:53:09.977Z,10.27
2017-04-06T09:54:18.868Z,10.26
2017-04-06T09:55:27.755Z,10.34
2017-04-06T09:56:36.804Z,10.09
2017-04-06T09:57:45.694Z,10.22
2017-04-06T09:58:54.587Z,10.34
2017-04-06T10:00:03.805Z,10.3
2017-04-06T10:01:12.696Z,10.2
2017-04-06T10:02:21.836Z,10.23
2017-04-06T10:03:31.056Z,10.26
2017-04-06T10:04:39.949Z,10.34
2017-04-06T10:05:48.843Z,10.45
2017-04-06T10:06:57.731Z,10.64
2017-04-06T10:08:06.817Z,10.7
2017-04-06T10:09:15.709Z,10.91
2017-04-06T10:10:24.927Z,10.94
2017-04-06T10:11:34.142Z,10.99
2017-04-06T10:12:43.358Z,10.97
2017-04-06T10:13:52.505Z,10.73
2017-04-06T10:15:01.399Z,10.82
2017-04-06T10:16:10.294Z,10.79
2017-04-06T10:17:19.510Z,10.64
2017-04-06T10:18:28.402Z,10.73
2017-04-06T10:19:37.672Z,10.82
2017-04-06T10:20:46.890Z,10.74
2017-04-06T10:21:55.781Z,10.68
2017-04-06T10:23:04.997Z,10.78
2017-04-06T10:24:13.888Z,10.76
2017-04-06T10:25:22.931Z,10.84
2017-04-06T10:26:32.152Z,10.85
2017-04-06T10:27:41.041Z,11.02
2017-04-06T10:28:49.934Z,11.1
2017-04-06T10:29:58.821Z,11.1
2017-04-06T10:31:08.187Z,11.18
2017-04-06T10:32:17.085Z,11.03
2017-04-06T10:33:25.974Z,11.07
2017-04-06T10:34:34.861Z,10.96
2017-04-06T10:35:43.755Z,11
2017-04-06T10:36:52.795Z,11
2017-04-06T10:38:01.683Z,11.06
2017-04-06T10:39:10.576Z,11.06
2017-04-06T10:40:19.472Z,11.04
2017-04-06T10:41:28.371Z,11.09
2017-04-06T10:42:38.182Z,11.06
2017-04-06T10:43:47.070Z,11.09
2017-04-06T10:44:56.281Z,11.07
2017-04-06T10:46:05.172Z,10.92
2017-04-06T10:47:14.101Z,11.07
2017-04-06T10:48:23.363Z,11.09
2017-04-06T10:49:32.257Z,11.14
2017-04-06T10:50:41.479Z,11.03
2017-04-06T10:51:50.374Z,11.06
2017-04-06T10:52:59.266Z,11.14
2017-04-06T10:54:08.206Z,11.24
2017-04-06T10:55:17.096Z,11.09
2017-04-06T10:56:25.996Z,11.33
2017-04-06T10:57:34.904Z,11.37
2017-04-06T10:58:44.469Z,11.22
2017-04-06T10:59:53.462Z,11.28
2017-04-06T11:01:02.355Z,11.21
2017-04-06T11:02:11.249Z,11.27
2017-04-06T11:03:20.139Z,11.36
2017-04-06T11:04:29.032Z,11.37
2017-04-06T11:05:38.192Z,11.39
2017-04-06T11:06:47.089Z,11.42
2017-04-06T11:07:56.038Z,11.33
2017-04-06T11:09:04.997Z,11.37
2017-04-06T11:10:13.917Z,11.37
2017-04-06T11:11:22.976Z,11.44
2017-04-06T11:12:31.869Z,11.47
2017-04-06T11:13:40.791Z,11.7
2017-04-06T11:14:50.044Z,11.67
2017-04-06T11:15:58.945Z,11.52
2017-04-06T11:17:08.919Z,11.72
2017-04-06T11:18:18.134Z,11.6
2017-04-06T11:19:27.023Z,11.78
2017-04-06T11:20:36.004Z,11.75
2017-04-06T11:21:44.970Z,11.69
2017-04-06T11:22:53.931Z,11.54
2017-04-06T11:24:02.818Z,11.57
2017-04-06T11:25:11.721Z,11.36
2017-04-06T11:26:20.936Z,11.29
2017-04-06T11:27:30.175Z,11.51
2017-04-06T11:28:39.387Z,11.67
2017-04-06T11:29:48.679Z,11.64
2017-04-06T11:30:57.570Z,11.8
2017-04-06T11:32:06.462Z,11.73
2017-04-06T11:33:15.355Z,11.75
2017-04-06T11:34:24.395Z,11.79
2017-04-06T11:35:33.283Z,11.73
2017-04-06T11:36:42.495Z,11.75
2017-04-06T11:37:51.734Z,11.62
2017-04-06T11:39:00.951Z,11.58
2017-04-06T11:40:10.273Z,11.62
2017-04-06T11:41:19.166Z,11.82
2017-04-06T11:42:28.054Z,11.88
2017-04-06T11:43:37.273Z,11.82
2017-04-06T11:44:46.164Z,11.58
2017-04-06T11:45:55.106Z,11.67
2017-04-06T11:47:04.004Z,11.75
2017-04-06T11:48:13.225Z,11.96
2017-04-06T11:49:22.117Z,12.01
2017-04-06T11:50:31.022Z,11.91
2017-04-06T11:51:40.064Z,11.79
2017-04-06T11:52:49.279Z,11.83
2017-04-06T11:53:58.176Z,11.94
2017-04-06T11:55:07.395Z,11.91
2017-04-06T11:56:16.496Z,11.6
2017-04-06T11:57:25.610Z,11.52
2017-04-06T11:58:34.506Z,11.61
2017-04-06T11:59:43.420Z,11.72
2017-04-06T12:00:52.311Z,11.7
2017-04-06T12:02:01.212Z,11.69
2017-04-06T12:03:10.319Z,11.51
2017-04-06T12:04:19.241Z,11.54
2017-04-06T12:05:28.458Z,11.65
2017-04-06T12:06:38.060Z,11.78
2017-04-06T12:07:47.008Z,11.79
2017-04-06T12:08:55.958Z,11.61
2017-04-06T12:10:05.225Z,11.65
2017-04-06T12:11:14.452Z,11.58
2017-04-06T12:12:23.386Z,11.7
2017-04-06T12:13:32.605Z,11.69
2017-04-06T12:14:41.611Z,11.88
2017-04-06T12:15:50.504Z,12.17
2017-04-06T12:16:59.447Z,12.34
2017-04-06T12:18:08.661Z,12.38
2017-04-06T12:19:17.555Z,12.21
2017-04-06T12:20:26.748Z,12.09
2017-04-06T12:21:35.646Z,11.94
2017-04-06T12:22:44.868Z,11.61
2017-04-06T12:23:53.762Z,11.58
2017-04-06T12:25:02.656Z,11.49
2017-04-06T12:26:11.973Z,11.69
2017-04-06T12:27:20.865Z,11.64
2017-04-06T12:28:29.758Z,11.73
2017-04-06T12:29:38.652Z,11.9
2017-04-06T12:30:47.543Z,11.79
2017-04-06T12:31:56.488Z,11.95
2017-04-06T12:33:05.396Z,12.14
2017-04-06T12:34:14.611Z,12.31
2017-04-06T12:35:23.833Z,12.38
2017-04-06T12:36:32.734Z,12.24
2017-04-06T12:37:41.782Z,12.23
2017-04-06T12:38:50.677Z,12.31
2017-04-06T12:40:00.222Z,12.41
2017-04-06T12:41:09.117Z,12.53
2017-04-06T12:42:18.661Z,12.78
2017-04-06T12:43:27.756Z,12.78
2017-04-06T12:44:36.976Z,12.75
2017-04-06T12:45:45.871Z,12.96
2017-04-06T12:46:54.766Z,13
2017-04-06T12:48:03.668Z,12.92
2017-04-06T12:49:12.814Z,13.04
2017-04-06T12:50:22.038Z,13.14
2017-04-06T12:51:30.930Z,13.36
2017-04-06T12:52:40.165Z,13.3
2017-04-06T12:53:49.065Z,13.32
2017-04-06T12:54:58.291Z,13.17
2017-04-06T12:56:07.516Z,13.3
2017-04-06T12:57:16.415Z,12.96
2017-04-06T12:58:25.639Z,12.78
2017-04-06T12:59:34.866Z,12.89
2017-04-06T13:00:43.948Z,13.05
2017-04-06T13:01:53.170Z,13.07
2017-04-06T13:03:02.064Z,13.07
2017-04-06T13:04:11.285Z,13.26
2017-04-06T13:05:20.212Z,13.32
2017-04-06T13:06:29.203Z,13.29
2017-04-06T13:07:38.096Z,13.22
2017-04-06T13:08:47.315Z,13.14
2017-04-06T13:09:56.209Z,13.3
2017-04-06T13:11:05.107Z,13.45
2017-04-06T13:12:14.527Z,13.32
2017-04-06T13:13:23.446Z,13.03
2017-04-06T13:14:32.347Z,13.3
2017-04-06T13:15:41.239Z,13.33
2017-04-06T13:16:50.140Z,13.49
2017-04-06T13:17:59.040Z,13.52
2017-04-06T13:19:08.311Z,13.54
2017-04-06T13:20:17.205Z,13.57
2017-04-06T13:21:26.099Z,13.57
2017-04-06T13:22:34.993Z,13.44
2017-04-06T13:23:44.190Z,13.44
2017-04-06T13:24:53.088Z,13.42
2017-04-06T13:26:01.983Z,13.38
2017-04-06T13:27:10.897Z,13.51
2017-04-06T13:28:19.831Z,13.32
2017-04-06T13:29:29.080Z,13.25
2017-04-06T13:30:37.974Z,13.3
2017-04-06T13:31:47.194Z,13.28
2017-04-06T13:32:56.418Z,13.19
2017-04-06T13:34:05.308Z,13.12
2017-04-06T13:35:14.457Z,12.95
2017-04-06T13:36:23.353Z,12.95
2017-04-06T13:37:32.257Z,13.04
2017-04-06T13:38:41.477Z,13.03
2017-04-06T13:39:50.369Z,13.01
2017-04-06T13:40:59.364Z,13.29
2017-04-06T13:42:08.585Z,13.42
2017-04-06T13:43:17.814Z,13.52
2017-04-06T13:44:26.710Z,13.32
2017-04-06T13:45:35.940Z,13.25
2017-04-06T13:46:45.187Z,13.29
2017-04-06T13:47:54.083Z,13.52
2017-04-06T13:49:02.984Z,13.69
2017-04-06T13:50:11.884Z,13.62
2017-04-06T13:51:20.784Z,13.79
2017-04-06T13:52:30.410Z,13.75
2017-04-06T13:53:39.312Z,13.99
2017-04-06T13:54:48.213Z,13.85
2017-04-06T13:55:57.113Z,13.71
2017-04-06T13:57:06.344Z,13.82
2017-04-06T13:58:15.763Z,14
2017-04-06T13:59:24.663Z,13.91
2017-04-06T14:00:34.220Z,13.78
2017-04-06T14:01:43.124Z,13.71
2017-04-06T14:02:52.348Z,13.54
2017-04-06T14:04:01.416Z,13.71
2017-04-06T14:05:10.342Z,13.62
2017-04-06T14:06:19.578Z,13.7
2017-04-06T14:07:28.849Z,13.49
2017-04-06T14:08:37.754Z,13.45
2017-04-06T14:09:47.136Z,13.33
2017-04-06T14:10:56.392Z,13.45
2017-04-06T14:12:05.303Z,13.59
2017-04-06T14:13:14.217Z,13.51
2017-04-06T14:14:23.114Z,13.32
2017-04-06T14:15:32.257Z,13
2017-04-06T14:16:41.482Z,12.9
2017-04-06T14:17:50.377Z,12.97
2017-04-06T14:18:59.269Z,13.23
2017-04-06T14:20:08.497Z,13.28
2017-04-06T14:21:17.559Z,13.42
2017-04-06T14:22:26.801Z,13.29
2017-04-06T14:23:35.702Z,13.33
2017-04-06T14:24:44.601Z,13.08
2017-04-06T14:25:53.827Z,13.01
2017-04-06T14:27:03.198Z,13.2
2017-04-06T14:28:12.424Z,13.03
2017-04-06T14:29:21.319Z,12.77
2017-04-06T14:30:30.218Z,12.78
2017-04-06T14:31:39.110Z,12.7
2017-04-06T14:32:48.654Z,12.65
2017-04-06T14:33:57.549Z,12.9
2017-04-06T14:35:06.446Z,12.78
2017-04-06T14:36:15.339Z,12.52
2017-04-06T14:37:24.555Z,12.23
2017-04-06T14:38:33.628Z,12.45
2017-04-06T14:39:42.521Z,12.2
2017-04-06T14:40:51.414Z,12.28
2017-04-06T14:42:00.322Z,12.28
2017-04-06T14:43:09.536Z,12.41
2017-04-06T14:44:19.399Z,12.5
2017-04-06T14:45:28.296Z,12.56
2017-04-06T14:46:37.194Z,12.5
2017-04-06T14:47:46.086Z,12.34
2017-04-06T14:48:55.308Z,12.41
2017-04-06T14:50:04.252Z,12.39
2017-04-06T14:51:13.814Z,12.29
2017-04-06T14:52:23.045Z,12.38
2017-04-06T14:53:31.934Z,12.53
2017-04-06T14:54:40.828Z,12.71
2017-04-06T14:55:49.830Z,12.95
2017-04-06T14:56:59.370Z,13.01
2017-04-06T14:58:08.590Z,13.07
2017-04-06T14:59:17.490Z,12.87
2017-04-06T15:00:26.387Z,12.47
2017-04-06T15:01:35.433Z,12.7
2017-04-06T15:02:44.651Z,12.64
2017-04-06T15:03:53.545Z,12.79
2017-04-06T15:05:02.440Z,12.71
2017-04-06T15:06:11.663Z,12.53
2017-04-06T15:07:20.616Z,12.41
2017-04-06T15:08:29.518Z,12.6
2017-04-06T15:09:38.738Z,12.52
2017-04-06T15:10:47.631Z,12.29